Time;durP1;ratioP1;P1;durP2;ratioP2;P2;SDS_P1;SDS_P2;PMS_P1;PMS_P2;Temp;Humidity;BMP_temperature;BMP_pressure;BME280_temperature;BME280_humidity;BME280_pressure;Samples;Min_cycle;Max_cycle;Signal;HPM_P1;HPM_P2
2022/07/04 00:01:09;;;;;;;8.95;3.85;;;;;;;24.09;51.74;99925.56;4460023;32;34807;-81
2022/07/04 00:03:37;;;;;;;6.60;3.45;;;;;;;24.24;51.09;99925.41;4462869;32;34501;-79
2022/07/04 00:06:05;;;;;;;7.57;3.83;;;;;;;24.13;51.02;99928.16;4460376;32;33898;-82
2022/07/04 00:08:32;;;;;;;7.05;3.80;;;;;;;22.00;57.05;99927.19;4462002;32;34579;-81
2022/07/04 00:11:00;;;;;;;8.43;3.78;;;;;;;22.16;56.93;99928.94;4447689;32;32896;-79
2022/07/04 00:13:28;;;;;;;7.32;3.78;;;;;;;22.72;55.38;99920.97;4464990;32;33767;-79
2022/07/04 00:15:55;;;;;;;6.10;3.90;;;;;;;23.46;52.96;99923.31;4461610;32;34042;-81
2022/07/04 00:18:23;;;;;;;6.37;3.58;;;;;;;23.48;52.72;99917.13;4464523;32;34513;-82
2022/07/04 00:20:50;;;;;;;6.20;3.75;;;;;;;23.22;53.87;99926.94;4465545;32;33675;-80
2022/07/04 00:23:18;;;;;;;7.15;3.55;;;;;;;22.32;57.00;99935.09;4436954;32;32379;-79
2022/07/04 00:25:46;;;;;;;8.32;3.67;;;;;;;23.02;53.76;99921.72;4461970;32;33539;-80
2022/07/04 00:28:14;;;;;;;6.70;3.62;;;;;;;22.32;55.25;99926.31;4465838;32;33864;-78
2022/07/04 00:30:41;;;;;;;5.72;3.50;;;;;;;21.14;59.12;99926.97;4459557;32;33940;-78
2022/07/04 00:33:13;;;;;;;5.93;3.78;;;;;;;20.85;60.84;99926.84;4466366;32;32486;-79
2022/07/04 00:35:40;;;;;;;6.03;3.67;;;;;;;20.85;60.84;99930.34;4465999;32;33157;-78
2022/07/04 00:38:08;;;;;;;5.15;3.55;;;;;;;21.57;58.67;99921.84;4465659;32;33650;-79
2022/07/04 00:40:37;;;;;;;5.72;3.87;;;;;;;22.34;55.76;99925.44;4447650;32;33318;-80
2022/07/04 00:43:05;;;;;;;7.10;3.67;;;;;;;22.68;53.98;99921.88;4465905;32;33956;-80
2022/07/04 00:45:33;;;;;;;7.75;3.40;;;;;;;22.63;53.98;99926.25;4461689;32;34081;-79
2022/07/04 00:48:00;;;;;;;5.37;3.65;;;;;;;22.77;53.44;99921.81;4457316;32;33873;-82
2022/07/04 00:50:28;;;;;;;6.60;3.70;;;;;;;21.20;57.70;99922.59;4462813;32;33999;-79
2022/07/04 00:52:56;;;;;;;5.62;3.40;;;;;;;20.86;58.57;99918.97;4464076;32;34720;-77
2022/07/04 00:55:24;;;;;;;4.97;3.30;;;;;;;20.65;59.29;99921.47;4451531;32;34158;-79
2022/07/04 00:57:51;;;;;;;7.70;3.67;;;;;;;20.85;58.88;99916.31;4436294;32;33949;-79
2022/07/04 01:00:19;;;;;;;7.22;3.60;;;;;;;20.69;58.40;99918.00;4462007;32;34553;-80
2022/07/04 01:02:47;;;;;;;6.55;3.47;;;;;;;20.73;57.77;99930.31;4460517;32;33596;-77
2022/07/04 01:05:14;;;;;;;7.70;3.40;;;;;;;20.86;57.60;99920.69;4458685;32;34555;-80
2022/07/04 01:07:43;;;;;;;8.73;3.90;;;;;;;21.19;57.17;99922.63;4461489;32;34094;-78
2022/07/04 01:10:10;;;;;;;5.80;3.17;;;;;;;21.08;57.44;99922.56;4463724;32;33734;-80
2022/07/04 01:12:38;;;;;;;5.20;3.37;;;;;;;21.53;56.30;99920.09;4461550;32;33551;-81
2022/07/04 01:15:07;;;;;;;6.55;3.37;;;;;;;21.00;57.89;99919.91;4445500;32;33706;-80
2022/07/04 01:17:35;;;;;;;6.25;3.42;;;;;;;21.13;57.65;99925.19;4466886;32;32485;-79
2022/07/04 01:20:04;;;;;;;5.75;3.45;;;;;;;20.82;58.33;99919.81;4461696;32;33986;-78
2022/07/04 01:22:32;;;;;;;6.43;3.42;;;;;;;21.27;56.78;99928.78;4464551;32;34950;-80
2022/07/04 01:24:59;;;;;;;6.43;3.40;;;;;;;20.74;58.07;99932.03;4450027;32;34221;-80
2022/07/04 01:27:27;;;;;;;8.00;3.67;;;;;;;20.55;58.23;99931.94;4454291;32;33674;-80
2022/07/04 01:29:55;;;;;;;5.75;3.80;;;;;;;20.54;58.16;99929.28;4447669;32;34985;-82
2022/07/04 01:32:22;;;;;;;5.78;3.60;;;;;;;21.00;56.96;99919.91;4462220;32;33669;-80
2022/07/04 01:34:49;;;;;;;5.82;3.80;;;;;;;21.25;56.43;99924.34;4462466;32;33445;-83
2022/07/04 01:37:18;;;;;;;5.07;3.40;;;;;;;21.17;56.81;99926.97;4463865;32;33911;-80
2022/07/04 01:39:45;;;;;;;9.07;3.90;;;;;;;20.66;58.99;99928.50;4464246;32;34718;-83
2022/07/04 01:42:13;;;;;;;5.22;3.47;;;;;;;20.55;59.79;99931.94;4460794;32;33807;-80
2022/07/04 01:44:41;;;;;;;5.43;3.60;;;;;;;20.92;58.74;99921.62;4442722;32;33501;-80
2022/07/04 01:47:08;;;;;;;5.75;3.12;;;;;;;20.58;59.88;99926.66;4459650;32;34505;-81
2022/07/04 01:49:36;;;;;;;8.82;4.03;;;;;;;20.38;60.61;99934.44;4459951;32;34784;-79
2022/07/04 01:52:04;;;;;;;7.53;3.85;;;;;;;20.33;60.96;99930.00;4462086;32;34940;-80
2022/07/04 01:54:31;;;;;;;5.62;3.90;;;;;;;20.30;60.73;99940.50;4462969;32;33449;-80
2022/07/04 01:56:59;;;;;;;6.32;3.95;;;;;;;20.22;61.02;99932.53;4464572;32;34605;-81
2022/07/04 02:02:12;;;;;;;5.30;3.90;;;;;;;20.39;60.34;99943.19;4456650;32;34577;-80
2022/07/04 02:04:40;;;;;;;6.65;3.50;;;;;;;19.99;61.65;99935.91;4458714;32;33015;-80
2022/07/04 02:07:08;;;;;;;7.68;3.75;;;;;;;20.33;61.03;99940.53;4458289;32;33941;-79
2022/07/04 02:09:35;;;;;;;6.18;3.97;;;;;;;20.07;61.72;99949.09;4455508;32;34439;-79
2022/07/04 02:14:49;;;;;;;6.53;3.87;;;;;;;20.38;60.69;99944.97;4462415;32;33460;-80
2022/07/04 02:17:17;;;;;;;6.10;3.72;;;;;;;20.40;60.56;99944.97;4459467;32;33920;-80
2022/07/04 02:19:44;;;;;;;5.55;3.70;;;;;;;20.12;61.49;99946.50;4461696;32;33941;-81
2022/07/04 02:22:12;;;;;;;6.18;3.90;;;;;;;19.93;62.12;99948.09;4465983;32;34550;-81
2022/07/04 02:24:40;;;;;;;6.37;3.92;;;;;;;19.83;61.96;99940.09;4459200;32;33349;-79
2022/07/04 02:27:08;;;;;;;8.30;3.90;;;;;;;20.06;61.03;99936.81;4459139;32;34709;-81
2022/07/04 02:29:36;;;;;;;7.15;3.62;;;;;;;20.35;59.94;99933.53;4449127;32;33895;-80
2022/07/04 02:32:04;;;;;;;6.10;3.70;;;;;;;20.23;60.07;99943.09;4449023;32;34828;-82
2022/07/04 02:34:32;;;;;;;10.50;4.05;;;;;;;20.18;60.39;99939.53;4459985;32;34288;-80
2022/07/04 02:36:59;;;;;;;8.00;4.35;;;;;;;19.97;61.24;99945.50;4449567;32;34622;-80
2022/07/04 02:39:27;;;;;;;7.78;3.92;;;;;;;20.14;60.72;99945.63;4459083;32;34043;-78
2022/07/04 02:41:54;;;;;;;7.60;4.12;;;;;;;20.32;59.89;99946.66;4462380;32;33483;-78
2022/07/04 02:44:23;;;;;;;6.45;4.05;;;;;;;20.39;59.70;99945.84;4465101;32;33408;-81
2022/07/04 02:46:51;;;;;;;6.70;3.67;;;;;;;20.58;59.50;99942.44;4463366;32;34000;-82
2022/07/04 02:49:19;;;;;;;6.03;3.40;;;;;;;20.46;59.92;99939.75;4461077;32;34471;-79
2022/07/04 02:51:47;;;;;;;7.05;3.60;;;;;;;20.83;58.47;99942.63;4454993;32;34011;-80
2022/07/04 02:54:15;;;;;;;6.90;4.12;;;;;;;20.90;58.24;99949.69;4463532;32;31856;-81
2022/07/04 02:56:43;;;;;;;6.90;3.87;;;;;;;20.79;58.69;99947.00;4462090;32;33995;-80
2022/07/04 02:59:10;;;;;;;8.05;4.15;;;;;;;20.80;58.61;99953.13;4454765;32;34616;-81
2022/07/04 03:01:38;;;;;;;6.75;3.97;;;;;;;20.58;59.41;99952.97;4445882;32;33398;-80
2022/07/04 03:04:06;;;;;;;7.50;4.12;;;;;;;20.56;59.55;99952.09;4460654;32;33813;-79
2022/07/04 03:06:33;;;;;;;8.20;4.32;;;;;;;20.58;59.44;99950.34;4457346;32;33687;-81
2022/07/04 03:09:01;;;;;;;6.90;3.60;;;;;;;20.66;58.72;99946.94;4461328;32;33993;-81
2022/07/04 03:11:28;;;;;;;7.62;4.18;;;;;;;20.58;59.07;99942.44;4460836;32;34498;-81
2022/07/04 03:13:56;;;;;;;6.15;3.60;;;;;;;20.62;58.60;99941.63;4459850;32;33427;-82
2022/07/04 03:16:23;;;;;;;7.53;3.90;;;;;;;20.72;58.43;99955.72;4462756;32;34388;-81
2022/07/04 03:18:51;;;;;;;8.13;3.95;;;;;;;20.56;58.84;99945.97;4457804;32;33541;-84
2022/07/04 03:21:18;;;;;;;6.62;4.15;;;;;;;20.59;59.10;99951.22;4458531;32;33692;-83
2022/07/04 03:23:58;;;;;;;7.55;3.83;;;;;;;20.51;59.14;99960.81;4464419;32;32691;-81
2022/07/04 03:26:29;;;;;;;9.00;3.80;;;;;;;20.45;59.73;99953.75;4449387;32;33022;-81
2022/07/04 03:28:58;;;;;;;7.40;3.72;;;;;;;20.44;59.96;99959.91;4440188;32;33735;-82
2022/07/04 03:31:27;;;;;;;6.65;4.00;;;;;;;20.54;59.71;99951.19;4455659;32;33746;-78
2022/07/04 03:33:55;;;;;;;6.32;4.35;;;;;;;20.59;59.17;99956.47;4457467;32;33628;-80
2022/07/04 03:36:22;;;;;;;7.70;4.70;;;;;;;20.62;58.89;99952.16;4459913;32;34357;-85
2022/07/04 03:38:50;;;;;;;6.43;4.45;;;;;;;20.61;58.91;99950.41;4451604;32;34835;-79
2022/07/04 03:41:17;;;;;;;6.82;4.00;;;;;;;20.51;60.08;99952.94;4465059;32;33859;-81
2022/07/04 03:43:45;;;;;;;7.28;4.05;;;;;;;20.27;60.97;99953.66;4463528;32;33247;-80
2022/07/04 03:46:12;;;;;;;6.55;4.55;;;;;;;20.23;61.12;99953.59;4457299;32;32455;-80
2022/07/04 03:48:43;;;;;;;10.02;3.80;;;;;;;20.34;61.38;99958.06;4455567;32;33694;-80
2022/07/04 03:51:12;;;;;;;7.97;4.53;;;;;;;20.37;60.14;99951.06;4447678;32;33884;-80
2022/07/04 03:53:40;;;;;;;6.80;4.10;;;;;;;20.59;59.81;99949.53;4464244;32;33527;-79
2022/07/04 03:56:08;;;;;;;8.40;3.90;;;;;;;20.66;59.62;99946.94;4460083;32;33441;-79
2022/07/04 03:58:36;;;;;;;7.95;4.37;;;;;;;20.64;60.74;99948.66;4464260;32;32503;-80
2022/07/04 04:01:03;;;;;;;9.15;4.32;;;;;;;20.83;59.80;99953.16;4458219;32;33804;-81
2022/07/04 04:06:18;;;;;;;8.93;4.93;;;;;;;20.93;59.90;99952.34;4461594;32;33886;-82
2022/07/04 04:08:45;;;;;;;7.18;4.07;;;;;;;21.15;59.22;99944.53;4463839;32;33588;-80
2022/07/04 04:11:13;;;;;;;9.35;3.90;;;;;;;21.35;58.74;99955.16;4456753;32;33799;-81
2022/07/04 04:13:40;;;;;;;7.07;4.18;;;;;;;21.38;57.79;99949.88;4448815;32;32739;-80
2022/07/04 04:16:08;;;;;;;5.95;3.87;;;;;;;21.61;57.74;99957.88;4464977;32;33864;-81
2022/07/04 04:18:36;;;;;;;5.10;3.72;;;;;;;21.79;57.03;99957.06;4462218;32;34683;-83
2022/07/04 04:21:04;;;;;;;10.85;4.40;;;;;;;22.22;55.73;99953.56;4456179;32;33991;-82
2022/07/04 04:23:32;;;;;;;8.23;3.97;;;;;;;22.03;55.49;99958.81;4451139;32;34021;-84
2022/07/04 04:25:59;;;;;;;8.00;4.18;;;;;;;21.91;55.92;99954.44;4469707;32;33612;-84
2022/07/04 04:28:27;;;;;;;7.62;4.10;;;;;;;22.12;55.80;99958.84;4460526;32;34668;-82
2022/07/04 04:30:54;;;;;;;7.75;3.95;;;;;;;23.20;52.75;99948.13;4458576;32;33624;-79
2022/07/04 04:33:22;;;;;;;9.07;4.53;;;;;;;22.41;54.25;99959.72;4463862;32;34034;-79
2022/07/04 04:35:49;;;;;;;7.87;4.40;;;;;;;22.86;53.17;99953.47;4466487;32;34033;-83
2022/07/04 04:38:17;;;;;;;6.07;3.62;;;;;;;22.60;53.87;99947.37;4460377;32;33616;-83
2022/07/04 04:40:45;;;;;;;9.25;3.97;;;;;;;23.21;52.56;99957.78;4463030;32;33668;-81
2022/07/04 04:43:12;;;;;;;6.40;4.30;;;;;;;24.09;49.86;99949.38;4467308;32;33222;-82
2022/07/04 04:45:40;;;;;;;5.87;3.92;;;;;;;24.39;49.38;99945.56;4467552;32;33809;-80
2022/07/04 04:48:07;;;;;;;8.75;4.00;;;;;;;23.47;50.83;99944.47;4467613;32;34562;-82
2022/07/04 04:50:35;;;;;;;7.60;4.22;;;;;;;24.27;49.36;99943.03;4460211;32;34038;-85
2022/07/04 04:53:03;;;;;;;5.78;3.62;;;;;;;24.44;49.32;99941.09;4447228;32;31790;-81
2022/07/04 04:55:30;;;;;;;8.82;3.80;;;;;;;23.59;51.03;99947.94;4465157;32;33742;-79
2022/07/04 04:57:58;;;;;;;7.65;4.07;;;;;;;23.28;52.25;99933.09;4458804;32;33844;-80
2022/07/04 05:00:26;;;;;;;7.28;4.10;;;;;;;23.44;51.91;99936.53;4462592;32;34721;-81
2022/07/04 05:02:53;;;;;;;7.03;3.72;;;;;;;23.57;51.64;99937.34;4459891;32;33328;-81
2022/07/04 05:05:21;;;;;;;7.45;3.75;;;;;;;23.89;51.08;99944.22;4447626;32;32502;-79
2022/07/04 05:07:49;;;;;;;7.20;4.25;;;;;;;23.69;50.71;99939.91;4467433;32;33781;-80
2022/07/04 05:10:16;;;;;;;5.87;4.32;;;;;;;24.13;49.80;99938.72;4460658;32;32338;-84
2022/07/04 05:12:44;;;;;;;7.72;4.10;;;;;;;24.17;50.13;99944.00;4461508;32;33501;-81
2022/07/04 05:15:11;;;;;;;7.40;4.47;;;;;;;24.05;50.56;99947.59;4443047;32;34561;-81
2022/07/04 05:17:39;;;;;;;8.75;4.20;;;;;;;24.05;50.53;99945.88;4460870;32;33528;-78
2022/07/04 05:20:07;;;;;;;7.95;3.80;;;;;;;24.64;48.91;99946.22;4463603;32;33641;-81
2022/07/04 05:22:35;;;;;;;9.63;4.37;;;;;;;24.47;49.31;99943.72;4440290;32;34081;-79
2022/07/04 05:25:04;;;;;;;5.60;3.78;;;;;;;25.09;48.14;99946.63;4441657;32;35339;-79
2022/07/04 05:27:32;;;;;;;10.48;3.95;;;;;;;24.79;49.59;99949.63;4447499;32;33880;-79
2022/07/04 05:30:00;;;;;;;9.45;3.70;;;;;;;24.80;48.64;99951.34;4443175;32;33836;-79
2022/07/04 05:32:27;;;;;;;9.23;4.22;;;;;;;24.87;48.83;99947.75;4444007;32;33168;-80
2022/07/04 05:34:56;;;;;;;6.43;3.72;;;;;;;25.30;48.68;99952.56;4444161;32;33549;-80
2022/07/04 05:37:24;;;;;;;10.05;3.97;;;;;;;25.92;46.44;99949.91;4431267;32;34682;-83
2022/07/04 05:39:52;;;;;;;5.47;3.80;;;;;;;25.87;45.64;99946.44;4443913;32;33700;-81
2022/07/04 05:42:19;;;;;;;5.97;3.60;;;;;;;26.26;45.57;99946.72;4446550;32;33962;-83
2022/07/04 05:44:47;;;;;;;7.05;3.87;;;;;;;26.20;45.14;99952.16;4447034;32;31985;-84
2022/07/04 05:47:15;;;;;;;7.50;4.00;;;;;;;25.82;46.82;99956.25;4443146;32;33555;-80
2022/07/04 05:49:42;;;;;;;7.00;4.37;;;;;;;26.04;45.02;99955.06;4447860;32;33857;-85
2022/07/04 05:52:10;;;;;;;11.38;4.35;;;;;;;26.42;45.37;99958.81;4441154;32;33307;-82
2022/07/04 05:54:38;;;;;;;9.13;4.47;;;;;;;27.14;44.01;99953.97;4433253;32;33741;-81
2022/07/04 05:57:06;;;;;;;9.13;4.28;;;;;;;25.80;45.73;99958.91;4442162;32;33624;-82
2022/07/04 05:59:34;;;;;;;16.52;4.80;;;;;;;26.44;43.82;99951.72;4444163;32;34459;-83
2022/07/04 06:02:01;;;;;;;6.45;4.28;;;;;;;25.95;45.44;99957.84;4441292;32;33436;-80
2022/07/04 06:04:29;;;;;;;5.50;4.00;;;;;;;26.77;44.06;99953.78;4447119;32;32445;-80
2022/07/04 06:06:57;;;;;;;5.55;3.72;;;;;;;27.69;41.27;99956.34;4447105;32;32451;-80
2022/07/04 06:09:25;;;;;;;7.47;4.03;;;;;;;26.49;43.13;99952.50;4445264;32;33772;-80
2022/07/04 06:11:52;;;;;;;8.77;4.10;;;;;;;27.07;42.24;99944.34;4444971;32;33183;-78
2022/07/04 06:14:20;;;;;;;7.72;4.30;;;;;;;26.95;41.98;99949.91;4443469;32;34782;-80
2022/07/04 06:16:47;;;;;;;7.70;4.05;;;;;;;27.20;42.41;99951.16;4443062;32;33650;-79
2022/07/04 06:19:15;;;;;;;8.65;4.20;;;;;;;28.21;40.69;99947.13;4444813;32;32428;-80
2022/07/04 06:21:42;;;;;;;8.68;4.35;;;;;;;27.57;40.68;99944.19;4449016;32;34068;-78
2022/07/04 06:24:10;;;;;;;6.37;3.90;;;;;;;27.61;41.96;99949.41;4461338;32;33828;-82
2022/07/04 06:26:38;;;;;;;9.23;4.20;;;;;;;27.21;41.93;99944.91;4461278;32;32570;-81
2022/07/04 06:29:05;;;;;;;5.87;4.03;;;;;;;27.53;40.91;99942.53;4458640;32;32287;-82
2022/07/04 06:31:33;;;;;;;5.72;4.20;;;;;;;27.25;41.03;99938.69;4455809;32;34785;-80
2022/07/04 06:36:47;;;;;;;8.70;3.70;;;;;;;27.51;41.56;99945.22;4457307;32;33866;-82
2022/07/04 06:39:15;;;;;;;8.50;3.90;;;;;;;27.80;40.91;99949.00;4447694;32;34583;-81
2022/07/04 06:41:42;;;;;;;5.65;3.60;;;;;;;27.55;40.82;99957.53;4460887;32;32773;-81
2022/07/04 06:44:10;;;;;;;6.82;3.70;;;;;;;28.04;40.71;99947.53;4437136;32;33637;-83
2022/07/04 06:46:40;;;;;;;5.87;3.83;;;;;;;28.50;39.80;99940.16;4439143;32;34551;-82
2022/07/04 06:49:08;;;;;;;7.32;4.12;;;;;;;28.03;39.82;99946.66;4442909;32;32219;-82
2022/07/04 06:51:35;;;;;;;12.98;4.57;;;;;;;28.01;39.69;99943.19;4447168;32;32784;-81
2022/07/04 06:54:03;;;;;;;5.90;3.72;;;;;;;28.61;39.11;99938.13;4459129;32;34056;-84
2022/07/04 06:56:31;;;;;;;8.65;4.90;;;;;;;29.11;38.10;99949.16;4465891;32;33428;-83
2022/07/04 06:58:58;;;;;;;7.22;3.67;;;;;;;28.31;38.80;99956.63;4462987;32;34518;-85
2022/07/04 07:01:26;;;;;;;6.35;3.80;;;;;;;29.13;38.50;99947.34;4451616;32;33395;-81
2022/07/04 07:03:53;;;;;;;10.30;3.75;;;;;;;29.16;37.06;99947.22;4461583;32;34621;-81
2022/07/04 07:06:23;;;;;;;5.95;4.22;;;;;;;28.71;37.29;99946.75;4444382;32;33829;-81
2022/07/04 07:08:51;;;;;;;6.07;3.62;;;;;;;29.54;35.88;99945.22;4457844;32;33684;-81
2022/07/04 07:11:19;;;;;;;6.37;3.55;;;;;;;29.01;37.46;99948.53;4461540;32;33564;-82
2022/07/04 07:13:51;;;;;;;6.55;3.28;;;;;;;28.89;36.82;99953.34;4464908;32;33676;-82
2022/07/04 07:16:19;;;;;;;5.93;3.72;;;;;;;29.13;35.72;99947.34;4454883;32;34018;-83
2022/07/04 07:18:48;;;;;;;5.20;3.42;;;;;;;30.56;34.78;99949.94;4459227;32;33887;-81
2022/07/04 07:21:16;;;;;;;7.15;3.50;;;;;;;30.50;34.24;99951.03;4448830;32;33647;-84
2022/07/04 07:23:44;;;;;;;4.80;3.05;;;;;;;30.41;33.52;99951.34;4451551;32;34523;-82
2022/07/04 07:26:12;;;;;;;6.03;3.17;;;;;;;31.68;31.36;99952.91;4458350;32;34273;-84
2022/07/04 07:28:40;;;;;;;7.45;3.12;;;;;;;30.59;32.99;99952.50;4464458;32;34287;-80
2022/07/04 07:31:07;;;;;;;5.15;3.30;;;;;;;31.70;30.85;99951.09;4466365;32;33392;-83
2022/07/04 07:33:35;;;;;;;4.55;2.72;;;;;;;31.17;31.13;99947.69;4457035;32;34102;-79
2022/07/04 07:36:03;;;;;;;5.10;2.60;;;;;;;31.40;30.02;99948.63;4457366;32;33969;-82
2022/07/04 07:38:31;;;;;;;5.07;2.37;;;;;;;33.15;27.45;99944.91;4461846;32;34042;-81
2022/07/04 07:40:58;;;;;;;3.97;2.12;;;;;;;33.87;26.97;99945.06;4460393;32;32810;-81
2022/07/04 07:43:26;;;;;;;4.32;2.00;;;;;;;33.39;25.98;99942.91;4465221;32;34633;-80
2022/07/04 07:45:53;;;;;;;4.07;2.17;;;;;;;33.52;26.13;99948.56;4460842;32;33664;-84
2022/07/04 07:48:21;;;;;;;5.22;2.20;;;;;;;33.84;26.83;99944.34;4462677;32;33715;-83
2022/07/04 07:50:48;;;;;;;3.70;1.75;;;;;;;33.87;26.14;99939.69;4459191;32;33511;-82
2022/07/04 07:53:17;;;;;;;4.32;2.25;;;;;;;35.18;24.75;99934.78;4462249;32;33916;-79
2022/07/04 07:55:44;;;;;;;9.35;1.83;;;;;;;34.24;26.08;99932.47;4457288;32;34699;-82
2022/07/04 07:58:12;;;;;;;5.32;1.87;;;;;;;35.38;23.38;99937.22;4458434;32;33912;-84
2022/07/04 08:00:39;;;;;;;4.50;1.62;;;;;;;35.95;22.18;99930.41;4461964;32;34129;-81
2022/07/04 08:06:11;;;;;;;3.12;1.60;;;;;;;35.08;22.90;99920.03;4458376;32;34739;-82
2022/07/04 08:08:43;;;;;;;3.12;1.60;;;;;;;35.26;22.41;99916.38;4459172;32;33802;-80
2022/07/04 08:11:11;;;;;;;3.67;1.80;;;;;;;36.46;22.54;99914.81;4471048;32;33094;-82
2022/07/04 08:13:40;;;;;;;2.75;1.60;;;;;;;36.42;21.69;99915.97;4447783;32;33880;-81
2022/07/04 08:16:08;;;;;;;2.40;1.50;;;;;;;37.08;21.67;99906.47;4467702;32;33922;-79
2022/07/04 08:18:35;;;;;;;3.78;1.70;;;;;;;37.30;20.80;99910.53;4458313;32;33972;-82
2022/07/04 08:21:03;;;;;;;2.70;1.42;;;;;;;36.69;20.70;99904.47;4458876;32;34276;-82
2022/07/04 08:23:40;;;;;;;4.28;1.48;;;;;;;35.92;22.07;99909.91;4451424;32;33911;-83
2022/07/04 08:26:23;;;;;;;4.55;1.60;;;;;;;36.12;20.46;99916.84;4453633;32;34136;-80
2022/07/04 08:28:52;;;;;;;3.40;1.12;;;;;;;36.24;20.84;99903.59;4442617;32;32453;-83
2022/07/04 08:31:19;;;;;;;2.10;1.27;;;;;;;36.21;21.23;99908.19;4462345;32;33953;-81
2022/07/04 08:34:07;;;;;;;3.65;1.40;;;;;;;36.78;20.09;99906.59;4463624;32;34678;-81
2022/07/04 08:36:34;;;;;;;3.08;1.65;;;;;;;36.00;21.16;99917.53;4462392;32;33887;-80
2022/07/04 08:39:02;;;;;;;3.35;1.42;;;;;;;36.60;20.38;99909.41;4445822;32;33922;-79
2022/07/04 08:41:36;;;;;;;3.12;1.40;;;;;;;36.35;20.55;99911.91;4464783;32;34123;-81
2022/07/04 08:44:04;;;;;;;;;;;;;;;36.49;21.31;99914.63;4444961;32;33878;-80
2022/07/04 08:46:31;;;;;;;2.90;1.40;;;;;;;36.34;20.38;99910.19;4466438;32;34297;-81
2022/07/04 08:49:01;;;;;;;1.95;1.20;;;;;;;35.87;20.40;99905.75;4443652;32;33878;-82
2022/07/04 08:51:46;;;;;;;3.65;1.37;;;;;;;34.40;23.46;99911.06;4455349;32;33428;-81
2022/07/04 08:59:49;;;;;;;4.37;1.58;;;;;;;35.44;22.00;99909.91;4470712;32;34714;-81
2022/07/04 09:02:19;;;;;;;4.93;1.50;;;;;;;35.05;22.60;99902.25;4457924;32;33844;-84
2022/07/04 09:04:49;;;;;;;4.47;1.40;;;;;;;35.13;22.81;99913.44;4452734;32;33837;-79
2022/07/04 09:07:17;;;;;;;3.22;1.50;;;;;;;35.26;22.37;99910.97;4457313;32;33856;-79
2022/07/04 09:09:45;;;;;;;3.60;1.50;;;;;;;35.14;22.76;99912.50;4446658;32;33339;-80
2022/07/04 09:12:19;;;;;;;4.18;1.65;;;;;;;35.04;23.03;99906.75;4456005;32;33070;-79
2022/07/04 09:14:46;;;;;;;5.95;1.42;;;;;;;34.73;23.03;99917.44;4456420;32;33909;-80
2022/07/04 09:17:13;;;;;;;2.37;1.30;;;;;;;34.57;22.72;99910.16;4468402;32;34023;-81
2022/07/04 09:19:41;;;;;;;2.87;1.62;;;;;;;34.05;23.51;99908.31;4461286;32;33679;-80
2022/07/04 09:22:11;;;;;;;4.00;1.58;;;;;;;33.95;24.83;99914.25;4467119;32;33378;-78
2022/07/04 09:24:44;;;;;;;3.33;1.67;;;;;;;34.65;23.58;99910.63;4458013;32;33812;-81
2022/07/04 09:27:13;;;;;;;4.78;1.60;;;;;;;34.55;23.89;99903.13;4466682;32;33836;-83
2022/07/04 09:29:53;;;;;;;3.50;1.67;;;;;;;34.33;23.74;99908.78;4436219;32;33840;-79
2022/07/04 09:32:41;;;;;;;2.62;1.73;;;;;;;34.39;23.71;99905.75;4465206;32;33476;-81
2022/07/04 09:35:12;;;;;;;3.50;1.70;;;;;;;34.43;23.87;99900.13;4453782;32;33408;-87
2022/07/04 09:37:45;;;;;;;3.83;2.05;;;;;;;34.15;24.10;99911.47;4454021;32;34042;-86
2022/07/04 09:40:21;;;;;;;3.15;1.48;;;;;;;33.45;23.79;99895.13;4466446;32;33685;-82
2022/07/04 09:42:48;;;;;;;3.42;1.65;;;;;;;32.96;25.24;99901.94;4465628;32;33977;-81
2022/07/04 09:45:16;;;;;;;2.72;1.80;;;;;;;33.21;25.52;99899.03;4461652;32;34024;-81
2022/07/04 09:47:45;;;;;;;5.85;1.98;;;;;;;34.11;23.68;99904.44;4468740;32;33878;-83
2022/07/04 09:50:18;;;;;;;4.22;1.90;;;;;;;33.93;24.74;99895.50;4443986;32;33756;-87
2022/07/04 09:52:56;;;;;;;5.78;2.00;;;;;;;33.99;24.39;99894.34;4460827;32;33338;-86
2022/07/04 09:55:26;;;;;;;3.33;1.90;;;;;;;34.47;24.45;99890.09;4462409;32;33820;-85
2022/07/04 09:57:59;;;;;;;3.00;1.95;;;;;;;33.64;25.55;99894.28;4449472;32;33458;-84
2022/07/04 10:00:31;;;;;;;2.87;1.90;;;;;;;34.37;24.44;99888.84;4427141;32;32277;-79
2022/07/04 10:03:18;;;;;;;6.60;2.45;;;;;;;33.74;25.04;99890.19;4459319;32;33190;-81
2022/07/04 10:05:46;;;;;;;4.18;1.92;;;;;;;34.84;24.15;99885.44;4459330;32;33622;-82
2022/07/04 10:08:21;;;;;;;3.47;1.70;;;;;;;35.13;24.14;99882.97;4460449;32;34684;-80
2022/07/04 10:10:48;;;;;;;2.87;1.90;;;;;;;34.42;24.33;99876.00;4457832;32;33853;-82
2022/07/04 10:13:16;;;;;;;3.22;2.08;;;;;;;34.89;24.64;99875.31;4464280;32;33250;-81
2022/07/04 10:15:43;;;;;;;3.70;2.00;;;;;;;35.31;23.41;99876.59;4460711;32;33636;-85
2022/07/04 10:18:11;;;;;;;2.65;1.80;;;;;;;35.35;22.39;99864.69;4451710;32;34646;-82
2022/07/04 10:20:39;;;;;;;3.53;2.35;;;;;;;35.48;22.42;99855.87;4461601;32;33682;-80
2022/07/04 10:23:07;;;;;;;7.12;2.05;;;;;;;34.89;23.27;99872.63;4463020;32;33990;-81
2022/07/04 10:25:35;;;;;;;4.55;1.73;;;;;;;35.52;23.35;99869.06;4442624;32;33688;-78
2022/07/04 10:28:03;;;;;;;5.82;2.47;;;;;;;35.97;22.61;99853.91;4459009;32;34644;-78
2022/07/04 10:30:33;;;;;;;3.58;1.42;;;;;;;34.83;22.50;99851.44;4460525;32;33802;-78
2022/07/04 10:33:09;;;;;;;3.55;1.77;;;;;;;35.31;21.73;99851.47;4461894;32;34328;-80
2022/07/04 10:35:53;;;;;;;3.47;1.60;;;;;;;35.66;21.31;99852.12;4441648;32;33610;-80
2022/07/04 10:38:25;;;;;;;3.10;1.50;;;;;;;35.88;20.72;99842.81;4445083;32;33483;-79
2022/07/04 10:40:57;;;;;;;2.75;1.30;;;;;;;35.97;20.22;99840.44;4447012;32;33551;-81
2022/07/04 10:43:25;;;;;;;2.75;1.37;;;;;;;36.06;20.24;99841.69;4461560;32;33885;-77
2022/07/04 10:45:52;;;;;;;5.97;1.80;;;;;;;36.77;19.23;99840.06;4456608;32;33648;-81
2022/07/04 10:48:24;;;;;;;6.87;1.75;;;;;;;34.81;20.80;99834.50;4458550;32;34556;-80
2022/07/04 10:51:01;;;;;;;2.40;1.52;;;;;;;34.54;21.34;99831.44;4463228;32;34387;-81
2022/07/04 10:53:30;;;;;;;3.35;1.45;;;;;;;35.73;20.91;99840.03;4444637;32;34155;-80
2022/07/04 10:56:27;;;;;;;4.35;1.60;;;;;;;36.11;19.83;99831.50;4458639;32;33977;-80
2022/07/04 10:58:57;;;;;;;4.62;1.70;;;;;;;34.74;21.71;99833.09;4436465;32;32530;-79
2022/07/04 11:01:24;;;;;;;5.15;1.77;;;;;;;33.99;21.75;99824.47;4459363;32;33640;-82
2022/07/04 11:03:53;;;;;;;2.03;1.23;;;;;;;34.28;21.41;99810.37;4450493;32;33082;-79
2022/07/04 11:06:33;;;;;;;3.97;1.40;;;;;;;34.63;21.96;99815.66;4458330;32;34000;-78
2022/07/04 11:09:10;;;;;;;3.58;1.50;;;;;;;35.29;21.33;99824.63;4460710;32;33772;-79
2022/07/04 11:11:51;;;;;;;3.50;1.23;;;;;;;35.39;21.37;99819.59;4461784;32;33898;-80
2022/07/04 11:14:38;;;;;;;4.15;1.50;;;;;;;35.71;20.67;99806.94;4468199;32;33610;-80
2022/07/04 11:17:11;;;;;;;5.07;1.20;;;;;;;35.36;21.93;99807.16;4455736;32;34743;-83
2022/07/04 11:19:44;;;;;;;5.32;1.80;;;;;;;36.09;20.32;99813.69;4452265;32;33846;-82
2022/07/04 11:22:21;;;;;;;2.62;1.83;;;;;;;35.95;20.85;99807.31;4453880;32;87624;-82
2022/07/04 11:24:49;;;;;;;3.12;1.40;;;;;;;35.63;21.49;99801.97;4462844;32;33185;-79
2022/07/04 11:27:17;;;;;;;3.55;1.17;;;;;;;35.90;19.94;99803.16;4456733;32;33662;-80
2022/07/04 11:29:54;;;;;;;3.15;1.60;;;;;;;35.69;19.64;99806.16;4462913;32;34553;-81
2022/07/04 11:32:30;;;;;;;2.30;1.27;;;;;;;35.08;19.98;99786.31;4457745;32;33795;-78
2022/07/04 11:34:58;;;;;;;3.95;1.10;;;;;;;35.62;19.88;99783.19;4457072;32;34247;-81
2022/07/04 11:37:26;;;;;;;3.87;1.30;;;;;;;35.78;18.58;99783.19;4448025;32;34379;-77
2022/07/04 11:45:50;;;;;;;2.78;1.20;;;;;;;34.88;21.12;99776.66;4462798;32;33011;-78
2022/07/04 11:48:26;;;;;;;4.87;1.40;;;;;;;35.65;21.02;99764.16;4457957;32;34544;-80
2022/07/04 11:50:54;;;;;;;2.10;1.20;;;;;;;34.95;20.01;99758.38;4459723;32;34410;-80
2022/07/04 11:53:22;;;;;;;3.87;1.30;;;;;;;35.85;18.07;99746.81;4459721;32;33601;-76
2022/07/04 11:55:57;;;;;;;3.05;1.30;;;;;;;35.67;18.70;99758.69;4455619;32;33325;-78
2022/07/04 11:58:25;;;;;;;2.55;1.27;;;;;;;35.07;18.99;99756.78;4460821;32;33814;-78
2022/07/04 12:00:52;;;;;;;4.12;1.33;;;;;;;34.94;19.52;99765.56;4460072;32;33933;-77
2022/07/04 12:03:20;;;;;;;3.62;1.52;;;;;;;34.70;19.67;99761.59;4458972;32;33900;-79
2022/07/04 12:06:00;;;;;;;3.35;1.37;;;;;;;35.00;20.37;99757.16;4460503;32;33340;-79
2022/07/04 12:08:28;;;;;;;4.47;1.60;;;;;;;36.04;18.78;99749.25;4458895;32;34329;-81